sensor_id;sensor_type;location;lat;lon;timestamp;P1;durP1;ratioP1;P2;durP2;ratioP2
19804;SDS011;10062;51.052;13.756;2022-07-29T00:01:43;5.83;;;1.77;;
19804;SDS011;10062;51.052;13.756;2022-07-29T00:04:14;8.70;;;2.07;;
19804;SDS011;10062;51.052;13.756;2022-07-29T00:06:46;4.70;;;2.00;;
19804;SDS011;10062;51.052;13.756;2022-07-29T00:09:18;4.13;;;1.90;;
19804;SDS011;10062;51.052;13.756;2022-07-29T00:11:50;8.20;;;2.20;;
19804;SDS011;10062;51.052;13.756;2022-07-29T00:14:21;4.87;;;1.90;;
19804;SDS011;10062;51.052;13.756;2022-07-29T00:16:54;6.20;;;2.30;;
19804;SDS011;10062;51.052;13.756;2022-07-29T00:19:26;5.73;;;2.50;;
19804;SDS011;10062;51.052;13.756;2022-07-29T00:21:58;7.50;;;2.03;;
19804;SDS011;10062;51.052;13.756;2022-07-29T00:24:29;6.47;;;2.37;;
19804;SDS011;10062;51.052;13.756;2022-07-29T00:27:01;7.13;;;2.20;;
19804;SDS011;10062;51.052;13.756;2022-07-29T00:29:33;6.73;;;2.37;;
19804;SDS011;10062;51.052;13.756;2022-07-29T00:32:06;6.17;;;2.00;;
19804;SDS011;10062;51.052;13.756;2022-07-29T00:34:38;4.30;;;2.00;;
19804;SDS011;10062;51.052;13.756;2022-07-29T00:37:27;6.87;;;2.03;;
19804;SDS011;10062;51.052;13.756;2022-07-29T00:39:59;5.77;;;2.20;;
19804;SDS011;10062;51.052;13.756;2022-07-29T00:42:31;7.20;;;2.60;;
19804;SDS011;10062;51.052;13.756;2022-07-29T00:45:13;5.30;;;2.27;;
19804;SDS011;10062;51.052;13.756;2022-07-29T00:47:46;8.43;;;2.00;;
19804;SDS011;10062;51.052;13.756;2022-07-29T00:50:18;4.40;;;2.13;;
19804;SDS011;10062;51.052;13.756;2022-07-29T00:52:50;4.87;;;2.03;;
19804;SDS011;10062;51.052;13.756;2022-07-29T00:55:23;9.63;;;3.10;;
19804;SDS011;10062;51.052;13.756;2022-07-29T00:57:55;6.73;;;2.40;;
19804;SDS011;10062;51.052;13.756;2022-07-29T01:00:28;4.80;;;2.17;;
19804;SDS011;10062;51.052;13.756;2022-07-29T01:03:01;8.07;;;2.33;;
19804;SDS011;10062;51.052;13.756;2022-07-29T01:05:33;7.07;;;2.10;;
19804;SDS011;10062;51.052;13.756;2022-07-29T01:08:06;6.00;;;2.10;;
19804;SDS011;10062;51.052;13.756;2022-07-29T01:10:38;4.13;;;2.20;;
19804;SDS011;10062;51.052;13.756;2022-07-29T01:13:11;8.03;;;2.30;;
19804;SDS011;10062;51.052;13.756;2022-07-29T01:15:45;4.47;;;1.90;;
19804;SDS011;10062;51.052;13.756;2022-07-29T01:18:22;8.53;;;2.33;;
19804;SDS011;10062;51.052;13.756;2022-07-29T01:24:05;6.67;;;2.30;;
19804;SDS011;10062;51.052;13.756;2022-07-29T01:26:46;6.30;;;2.50;;
19804;SDS011;10062;51.052;13.756;2022-07-29T01:29:25;8.13;;;3.43;;
19804;SDS011;10062;51.052;13.756;2022-07-29T01:32:01;8.30;;;2.50;;
19804;SDS011;10062;51.052;13.756;2022-07-29T01:34:38;9.90;;;2.50;;
19804;SDS011;10062;51.052;13.756;2022-07-29T01:37:18;9.10;;;2.70;;
19804;SDS011;10062;51.052;13.756;2022-07-29T01:39:51;7.00;;;2.50;;
19804;SDS011;10062;51.052;13.756;2022-07-29T01:42:26;7.83;;;2.77;;
19804;SDS011;10062;51.052;13.756;2022-07-29T01:45:05;8.03;;;2.60;;
19804;SDS011;10062;51.052;13.756;2022-07-29T01:47:43;11.43;;;3.23;;
19804;SDS011;10062;51.052;13.756;2022-07-29T01:50:26;10.13;;;2.80;;
19804;SDS011;10062;51.052;13.756;2022-07-29T01:53:04;6.57;;;2.77;;
19804;SDS011;10062;51.052;13.756;2022-07-29T01:55:39;6.67;;;3.63;;
19804;SDS011;10062;51.052;13.756;2022-07-29T01:58:14;7.10;;;2.63;;
19804;SDS011;10062;51.052;13.756;2022-07-29T02:00:50;7.07;;;3.17;;
19804;SDS011;10062;51.052;13.756;2022-07-29T02:03:22;7.80;;;2.60;;
19804;SDS011;10062;51.052;13.756;2022-07-29T02:05:55;7.07;;;3.10;;
19804;SDS011;10062;51.052;13.756;2022-07-29T02:08:29;10.93;;;4.13;;
19804;SDS011;10062;51.052;13.756;2022-07-29T02:11:03;8.00;;;3.27;;
19804;SDS011;10062;51.052;13.756;2022-07-29T02:13:37;10.50;;;3.47;;
19804;SDS011;10062;51.052;13.756;2022-07-29T02:16:11;9.57;;;3.20;;
19804;SDS011;10062;51.052;13.756;2022-07-29T02:18:44;6.57;;;3.53;;
19804;SDS011;10062;51.052;13.756;2022-07-29T02:21:19;11.67;;;3.47;;
19804;SDS011;10062;51.052;13.756;2022-07-29T02:23:54;9.93;;;3.53;;
19804;SDS011;10062;51.052;13.756;2022-07-29T02:26:29;8.93;;;3.03;;
19804;SDS011;10062;51.052;13.756;2022-07-29T02:29:04;10.13;;;3.90;;
19804;SDS011;10062;51.052;13.756;2022-07-29T02:31:39;8.97;;;3.60;;
19804;SDS011;10062;51.052;13.756;2022-07-29T02:34:13;13.30;;;4.03;;
19804;SDS011;10062;51.052;13.756;2022-07-29T02:36:47;14.97;;;4.40;;
19804;SDS011;10062;51.052;13.756;2022-07-29T02:39:20;9.10;;;4.57;;
19804;SDS011;10062;51.052;13.756;2022-07-29T02:41:54;12.47;;;5.13;;
19804;SDS011;10062;51.052;13.756;2022-07-29T02:44:29;11.83;;;5.00;;
19804;SDS011;10062;51.052;13.756;2022-07-29T02:47:06;10.47;;;6.47;;
19804;SDS011;10062;51.052;13.756;2022-07-29T02:49:52;16.50;;;10.20;;
19804;SDS011;10062;51.052;13.756;2022-07-29T02:52:27;15.90;;;9.77;;
19804;SDS011;10062;51.052;13.756;2022-07-29T02:55:06;20.80;;;12.83;;
19804;SDS011;10062;51.052;13.756;2022-07-29T02:57:46;18.20;;;10.77;;
19804;SDS011;10062;51.052;13.756;2022-07-29T03:00:22;23.70;;;13.30;;
19804;SDS011;10062;51.052;13.756;2022-07-29T03:02:59;23.50;;;14.20;;
19804;SDS011;10062;51.052;13.756;2022-07-29T03:05:34;22.97;;;13.27;;
19804;SDS011;10062;51.052;13.756;2022-07-29T03:08:06;26.10;;;14.40;;
19804;SDS011;10062;51.052;13.756;2022-07-29T03:10:42;30.33;;;18.70;;
19804;SDS011;10062;51.052;13.756;2022-07-29T03:13:17;35.83;;;20.47;;
19804;SDS011;10062;51.052;13.756;2022-07-29T03:15:50;33.40;;;20.63;;
19804;SDS011;10062;51.052;13.756;2022-07-29T03:18:24;37.33;;;21.73;;
19804;SDS011;10062;51.052;13.756;2022-07-29T03:20:56;29.07;;;19.53;;
19804;SDS011;10062;51.052;13.756;2022-07-29T03:23:28;32.53;;;19.50;;
19804;SDS011;10062;51.052;13.756;2022-07-29T03:26:00;28.23;;;18.47;;
19804;SDS011;10062;51.052;13.756;2022-07-29T03:28:32;34.07;;;16.37;;
19804;SDS011;10062;51.052;13.756;2022-07-29T03:31:04;27.50;;;16.30;;
19804;SDS011;10062;51.052;13.756;2022-07-29T03:33:37;25.47;;;16.50;;
19804;SDS011;10062;51.052;13.756;2022-07-29T03:36:08;29.13;;;16.23;;
19804;SDS011;10062;51.052;13.756;2022-07-29T03:38:40;26.37;;;16.17;;
19804;SDS011;10062;51.052;13.756;2022-07-29T03:41:15;33.67;;;17.23;;
19804;SDS011;10062;51.052;13.756;2022-07-29T03:43:48;30.13;;;18.40;;
19804;SDS011;10062;51.052;13.756;2022-07-29T03:46:22;36.60;;;19.37;;
19804;SDS011;10062;51.052;13.756;2022-07-29T03:48:59;36.73;;;17.87;;
19804;SDS011;10062;51.052;13.756;2022-07-29T03:51:33;30.17;;;18.10;;
19804;SDS011;10062;51.052;13.756;2022-07-29T03:54:06;35.57;;;19.73;;
19804;SDS011;10062;51.052;13.756;2022-07-29T03:56:39;40.07;;;21.00;;
19804;SDS011;10062;51.052;13.756;2022-07-29T03:59:12;33.73;;;20.43;;
19804;SDS011;10062;51.052;13.756;2022-07-29T04:01:46;35.37;;;20.07;;
19804;SDS011;10062;51.052;13.756;2022-07-29T04:04:21;38.47;;;20.03;;
19804;SDS011;10062;51.052;13.756;2022-07-29T04:06:52;46.83;;;23.33;;
19804;SDS011;10062;51.052;13.756;2022-07-29T04:09:25;42.83;;;23.80;;
19804;SDS011;10062;51.052;13.756;2022-07-29T04:11:57;52.77;;;30.50;;
19804;SDS011;10062;51.052;13.756;2022-07-29T04:14:28;39.80;;;23.77;;
19804;SDS011;10062;51.052;13.756;2022-07-29T04:17:00;34.80;;;20.97;;
19804;SDS011;10062;51.052;13.756;2022-07-29T04:19:34;34.83;;;21.03;;
19804;SDS011;10062;51.052;13.756;2022-07-29T04:22:06;30.37;;;19.40;;
19804;SDS011;10062;51.052;13.756;2022-07-29T04:24:38;29.17;;;17.97;;
19804;SDS011;10062;51.052;13.756;2022-07-29T04:27:09;29.07;;;18.30;;
19804;SDS011;10062;51.052;13.756;2022-07-29T04:29:41;28.43;;;16.87;;
19804;SDS011;10062;51.052;13.756;2022-07-29T04:32:13;31.77;;;18.03;;
19804;SDS011;10062;51.052;13.756;2022-07-29T04:34:46;31.23;;;18.70;;
19804;SDS011;10062;51.052;13.756;2022-07-29T04:37:17;30.90;;;19.03;;
19804;SDS011;10062;51.052;13.756;2022-07-29T04:39:50;33.00;;;17.30;;
19804;SDS011;10062;51.052;13.756;2022-07-29T04:42:21;34.43;;;18.43;;
19804;SDS011;10062;51.052;13.756;2022-07-29T04:44:53;30.13;;;18.43;;
19804;SDS011;10062;51.052;13.756;2022-07-29T04:47:25;33.90;;;17.90;;
19804;SDS011;10062;51.052;13.756;2022-07-29T04:49:58;29.40;;;18.33;;
19804;SDS011;10062;51.052;13.756;2022-07-29T04:52:30;28.53;;;18.07;;
19804;SDS011;10062;51.052;13.756;2022-07-29T04:55:02;29.67;;;17.40;;
19804;SDS011;10062;51.052;13.756;2022-07-29T04:57:34;25.53;;;15.63;;
19804;SDS011;10062;51.052;13.756;2022-07-29T05:00:06;26.83;;;17.07;;
19804;SDS011;10062;51.052;13.756;2022-07-29T05:02:39;35.80;;;17.23;;
19804;SDS011;10062;51.052;13.756;2022-07-29T05:05:12;30.87;;;18.43;;
19804;SDS011;10062;51.052;13.756;2022-07-29T05:07:43;29.17;;;18.70;;
19804;SDS011;10062;51.052;13.756;2022-07-29T05:10:15;33.37;;;18.07;;
19804;SDS011;10062;51.052;13.756;2022-07-29T05:12:47;26.90;;;16.57;;
19804;SDS011;10062;51.052;13.756;2022-07-29T05:15:19;30.60;;;16.47;;
19804;SDS011;10062;51.052;13.756;2022-07-29T05:17:50;30.70;;;16.90;;
19804;SDS011;10062;51.052;13.756;2022-07-29T05:20:23;27.73;;;17.23;;
19804;SDS011;10062;51.052;13.756;2022-07-29T05:22:58;28.47;;;16.57;;
19804;SDS011;10062;51.052;13.756;2022-07-29T05:25:31;30.57;;;16.20;;
19804;SDS011;10062;51.052;13.756;2022-07-29T05:28:03;31.63;;;16.97;;
19804;SDS011;10062;51.052;13.756;2022-07-29T05:30:35;31.93;;;16.80;;
19804;SDS011;10062;51.052;13.756;2022-07-29T05:33:06;36.47;;;17.37;;
19804;SDS011;10062;51.052;13.756;2022-07-29T05:35:39;29.80;;;15.37;;
19804;SDS011;10062;51.052;13.756;2022-07-29T05:38:11;28.20;;;16.53;;
19804;SDS011;10062;51.052;13.756;2022-07-29T05:40:43;35.17;;;20.07;;
19804;SDS011;10062;51.052;13.756;2022-07-29T05:43:14;38.17;;;19.37;;
19804;SDS011;10062;51.052;13.756;2022-07-29T05:45:46;37.17;;;19.90;;
19804;SDS011;10062;51.052;13.756;2022-07-29T05:48:18;36.07;;;19.73;;
19804;SDS011;10062;51.052;13.756;2022-07-29T05:50:51;32.37;;;20.17;;
19804;SDS011;10062;51.052;13.756;2022-07-29T05:53:23;37.57;;;21.43;;
19804;SDS011;10062;51.052;13.756;2022-07-29T05:55:54;39.77;;;21.23;;
19804;SDS011;10062;51.052;13.756;2022-07-29T05:58:26;30.97;;;18.87;;
19804;SDS011;10062;51.052;13.756;2022-07-29T06:00:59;30.63;;;19.13;;
19804;SDS011;10062;51.052;13.756;2022-07-29T06:03:30;35.27;;;18.00;;
19804;SDS011;10062;51.052;13.756;2022-07-29T06:06:04;32.77;;;19.00;;
19804;SDS011;10062;51.052;13.756;2022-07-29T06:08:37;32.23;;;18.40;;
19804;SDS011;10062;51.052;13.756;2022-07-29T06:11:10;35.83;;;18.93;;
19804;SDS011;10062;51.052;13.756;2022-07-29T06:13:41;35.47;;;18.93;;
19804;SDS011;10062;51.052;13.756;2022-07-29T06:16:13;47.57;;;20.43;;
19804;SDS011;10062;51.052;13.756;2022-07-29T06:18:45;33.27;;;19.03;;
19804;SDS011;10062;51.052;13.756;2022-07-29T06:21:18;34.53;;;18.70;;
19804;SDS011;10062;51.052;13.756;2022-07-29T06:23:49;32.97;;;18.77;;
19804;SDS011;10062;51.052;13.756;2022-07-29T06:26:21;35.20;;;18.63;;
19804;SDS011;10062;51.052;13.756;2022-07-29T06:28:53;32.73;;;18.30;;
19804;SDS011;10062;51.052;13.756;2022-07-29T06:31:24;31.53;;;19.13;;
19804;SDS011;10062;51.052;13.756;2022-07-29T06:33:56;30.53;;;17.90;;
19804;SDS011;10062;51.052;13.756;2022-07-29T06:36:29;33.00;;;19.17;;
19804;SDS011;10062;51.052;13.756;2022-07-29T06:39:03;36.60;;;18.07;;
19804;SDS011;10062;51.052;13.756;2022-07-29T06:41:35;30.63;;;19.07;;
19804;SDS011;10062;51.052;13.756;2022-07-29T06:44:13;36.23;;;19.63;;
19804;SDS011;10062;51.052;13.756;2022-07-29T06:46:44;29.77;;;18.60;;
19804;SDS011;10062;51.052;13.756;2022-07-29T06:49:19;33.60;;;18.50;;
19804;SDS011;10062;51.052;13.756;2022-07-29T06:51:52;34.93;;;18.77;;
19804;SDS011;10062;51.052;13.756;2022-07-29T06:54:23;30.10;;;19.20;;
19804;SDS011;10062;51.052;13.756;2022-07-29T06:56:55;28.83;;;18.27;;
19804;SDS011;10062;51.052;13.756;2022-07-29T06:59:27;36.60;;;17.97;;
19804;SDS011;10062;51.052;13.756;2022-07-29T07:01:59;29.23;;;17.00;;
19804;SDS011;10062;51.052;13.756;2022-07-29T07:04:30;33.33;;;18.07;;
19804;SDS011;10062;51.052;13.756;2022-07-29T07:07:04;33.17;;;18.27;;
19804;SDS011;10062;51.052;13.756;2022-07-29T07:09:36;34.40;;;17.90;;
19804;SDS011;10062;51.052;13.756;2022-07-29T07:12:08;30.60;;;16.77;;
19804;SDS011;10062;51.052;13.756;2022-07-29T07:14:40;28.43;;;15.43;;
19804;SDS011;10062;51.052;13.756;2022-07-29T07:17:11;31.43;;;17.97;;
19804;SDS011;10062;51.052;13.756;2022-07-29T07:19:43;28.47;;;16.60;;
19804;SDS011;10062;51.052;13.756;2022-07-29T07:22:17;34.50;;;14.83;;
19804;SDS011;10062;51.052;13.756;2022-07-29T07:24:49;24.57;;;13.13;;
19804;SDS011;10062;51.052;13.756;2022-07-29T07:27:21;30.10;;;13.67;;
19804;SDS011;10062;51.052;13.756;2022-07-29T07:29:52;27.67;;;12.83;;
19804;SDS011;10062;51.052;13.756;2022-07-29T07:32:24;20.23;;;11.83;;
19804;SDS011;10062;51.052;13.756;2022-07-29T07:34:56;20.00;;;11.97;;
19804;SDS011;10062;51.052;13.756;2022-07-29T07:37:30;21.07;;;12.13;;
19804;SDS011;10062;51.052;13.756;2022-07-29T07:40:02;17.67;;;11.27;;
19804;SDS011;10062;51.052;13.756;2022-07-29T07:42:35;28.17;;;11.27;;
19804;SDS011;10062;51.052;13.756;2022-07-29T07:45:07;24.43;;;11.67;;
19804;SDS011;10062;51.052;13.756;2022-07-29T07:47:40;23.77;;;11.33;;
19804;SDS011;10062;51.052;13.756;2022-07-29T07:50:11;20.90;;;11.73;;
19804;SDS011;10062;51.052;13.756;2022-07-29T07:52:48;28.33;;;11.63;;
19804;SDS011;10062;51.052;13.756;2022-07-29T07:55:21;24.53;;;11.37;;
19804;SDS011;10062;51.052;13.756;2022-07-29T07:57:53;20.27;;;11.43;;
19804;SDS011;10062;51.052;13.756;2022-07-29T08:00:25;19.53;;;10.13;;
19804;SDS011;10062;51.052;13.756;2022-07-29T08:02:57;21.30;;;10.50;;
19804;SDS011;10062;51.052;13.756;2022-07-29T08:05:29;23.40;;;10.83;;
19804;SDS011;10062;51.052;13.756;2022-07-29T08:08:02;23.03;;;10.77;;
19804;SDS011;10062;51.052;13.756;2022-07-29T08:10:34;26.23;;;9.90;;
19804;SDS011;10062;51.052;13.756;2022-07-29T08:13:26;35.43;;;23.63;;
19804;SDS011;10062;51.052;13.756;2022-07-29T08:15:59;27.03;;;12.77;;
19804;SDS011;10062;51.052;13.756;2022-07-29T08:18:31;27.30;;;11.67;;
19804;SDS011;10062;51.052;13.756;2022-07-29T08:21:03;26.85;;;10.85;;
19804;SDS011;10062;51.052;13.756;2022-07-29T08:23:36;25.75;;;11.13;;
19804;SDS011;10062;51.052;13.756;2022-07-29T08:26:09;16.45;;;10.18;;
19804;SDS011;10062;51.052;13.756;2022-07-29T08:28:43;17.85;;;9.52;;
19804;SDS011;10062;51.052;13.756;2022-07-29T08:31:16;18.13;;;10.20;;
19804;SDS011;10062;51.052;13.756;2022-07-29T08:33:48;17.58;;;9.73;;
19804;SDS011;10062;51.052;13.756;2022-07-29T08:36:20;21.52;;;10.55;;
19804;SDS011;10062;51.052;13.756;2022-07-29T08:38:53;21.35;;;9.40;;
19804;SDS011;10062;51.052;13.756;2022-07-29T08:41:25;23.38;;;9.98;;
19804;SDS011;10062;51.052;13.756;2022-07-29T08:43:57;24.25;;;9.60;;
19804;SDS011;10062;51.052;13.756;2022-07-29T08:46:29;18.58;;;10.38;;
19804;SDS011;10062;51.052;13.756;2022-07-29T08:49:01;25.88;;;9.85;;
19804;SDS011;10062;51.052;13.756;2022-07-29T08:51:33;24.25;;;11.23;;
19804;SDS011;10062;51.052;13.756;2022-07-29T08:54:09;21.88;;;9.70;;
19804;SDS011;10062;51.052;13.756;2022-07-29T08:56:41;18.35;;;9.35;;
19804;SDS011;10062;51.052;13.756;2022-07-29T08:59:13;22.65;;;9.85;;
19804;SDS011;10062;51.052;13.756;2022-07-29T09:01:45;22.65;;;9.65;;
19804;SDS011;10062;51.052;13.756;2022-07-29T09:04:19;20.23;;;9.65;;
19804;SDS011;10062;51.052;13.756;2022-07-29T09:06:51;20.38;;;9.73;;
19804;SDS011;10062;51.052;13.756;2022-07-29T09:09:28;28.80;;;10.63;;
19804;SDS011;10062;51.052;13.756;2022-07-29T09:12:00;17.90;;;9.15;;
19804;SDS011;10062;51.052;13.756;2022-07-29T09:14:34;16.33;;;10.13;;
19804;SDS011;10062;51.052;13.756;2022-07-29T09:17:05;16.73;;;8.93;;
19804;SDS011;10062;51.052;13.756;2022-07-29T09:19:38;17.10;;;8.30;;
19804;SDS011;10062;51.052;13.756;2022-07-29T09:22:09;17.55;;;9.10;;
19804;SDS011;10062;51.052;13.756;2022-07-29T09:24:44;15.88;;;9.00;;
19804;SDS011;10062;51.052;13.756;2022-07-29T09:27:20;13.65;;;8.65;;
19804;SDS011;10062;51.052;13.756;2022-07-29T09:29:56;19.15;;;9.23;;
19804;SDS011;10062;51.052;13.756;2022-07-29T09:32:29;18.05;;;9.70;;
19804;SDS011;10062;51.052;13.756;2022-07-29T09:35:13;18.80;;;10.50;;
19804;SDS011;10062;51.052;13.756;2022-07-29T09:37:46;18.25;;;10.05;;
19804;SDS011;10062;51.052;13.756;2022-07-29T09:40:20;16.30;;;9.55;;
19804;SDS011;10062;51.052;13.756;2022-07-29T09:42:55;16.55;;;10.60;;
19804;SDS011;10062;51.052;13.756;2022-07-29T09:45:28;17.58;;;9.70;;
19804;SDS011;10062;51.052;13.756;2022-07-29T09:48:12;17.48;;;10.25;;
19804;SDS011;10062;51.052;13.756;2022-07-29T09:50:45;15.25;;;9.63;;
19804;SDS011;10062;51.052;13.756;2022-07-29T09:53:32;18.95;;;9.80;;
19804;SDS011;10062;51.052;13.756;2022-07-29T09:56:06;20.38;;;11.25;;
19804;SDS011;10062;51.052;13.756;2022-07-29T09:58:38;17.75;;;11.07;;
19804;SDS011;10062;51.052;13.756;2022-07-29T10:01:09;21.10;;;12.40;;
19804;SDS011;10062;51.052;13.756;2022-07-29T10:03:50;16.08;;;9.60;;
19804;SDS011;10062;51.052;13.756;2022-07-29T10:06:22;17.98;;;10.73;;
19804;SDS011;10062;51.052;13.756;2022-07-29T10:08:53;20.20;;;10.05;;
19804;SDS011;10062;51.052;13.756;2022-07-29T10:11:27;17.73;;;10.27;;
19804;SDS011;10062;51.052;13.756;2022-07-29T10:13:58;16.50;;;10.80;;
19804;SDS011;10062;51.052;13.756;2022-07-29T10:16:33;20.95;;;10.90;;
19804;SDS011;10062;51.052;13.756;2022-07-29T10:19:04;20.13;;;11.98;;
19804;SDS011;10062;51.052;13.756;2022-07-29T10:21:36;15.15;;;10.68;;
19804;SDS011;10062;51.052;13.756;2022-07-29T10:24:12;17.08;;;10.98;;
19804;SDS011;10062;51.052;13.756;2022-07-29T10:26:46;15.25;;;9.65;;
19804;SDS011;10062;51.052;13.756;2022-07-29T10:29:18;16.50;;;10.05;;
19804;SDS011;10062;51.052;13.756;2022-07-29T10:31:51;15.10;;;8.93;;
19804;SDS011;10062;51.052;13.756;2022-07-29T10:34:34;18.33;;;9.07;;
19804;SDS011;10062;51.052;13.756;2022-07-29T10:37:24;13.48;;;8.32;;
19804;SDS011;10062;51.052;13.756;2022-07-29T10:40:06;13.50;;;7.65;;
19804;SDS011;10062;51.052;13.756;2022-07-29T10:43:07;12.60;;;6.63;;
19804;SDS011;10062;51.052;13.756;2022-07-29T10:45:49;7.22;;;3.85;;
19804;SDS011;10062;51.052;13.756;2022-07-29T10:48:25;9.88;;;3.78;;
19804;SDS011;10062;51.052;13.756;2022-07-29T10:50:59;7.55;;;3.40;;
19804;SDS011;10062;51.052;13.756;2022-07-29T10:53:45;7.10;;;3.42;;
19804;SDS011;10062;51.052;13.756;2022-07-29T10:56:25;7.45;;;3.53;;
19804;SDS011;10062;51.052;13.756;2022-07-29T11:01:56;6.15;;;2.80;;
19804;SDS011;10062;51.052;13.756;2022-07-29T11:07:33;5.30;;;2.40;;
19804;SDS011;10062;51.052;13.756;2022-07-29T11:10:22;4.43;;;2.95;;
19804;SDS011;10062;51.052;13.756;2022-07-29T11:12:54;6.50;;;2.58;;
19804;SDS011;10062;51.052;13.756;2022-07-29T11:15:27;3.47;;;1.85;;
19804;SDS011;10062;51.052;13.756;2022-07-29T11:18:07;6.28;;;2.60;;
19804;SDS011;10062;51.052;13.756;2022-07-29T11:20:40;5.85;;;2.38;;
19804;SDS011;10062;51.052;13.756;2022-07-29T11:23:20;5.70;;;2.53;;
19804;SDS011;10062;51.052;13.756;2022-07-29T11:26:14;3.50;;;2.38;;
19804;SDS011;10062;51.052;13.756;2022-07-29T11:28:48;6.18;;;2.72;;
19804;SDS011;10062;51.052;13.756;2022-07-29T11:31:33;5.75;;;2.67;;
19804;SDS011;10062;51.052;13.756;2022-07-29T11:34:17;5.22;;;2.70;;
19804;SDS011;10062;51.052;13.756;2022-07-29T11:42:41;3.92;;;2.50;;
19804;SDS011;10062;51.052;13.756;2022-07-29T11:45:15;5.90;;;3.40;;
19804;SDS011;10062;51.052;13.756;2022-07-29T11:47:59;4.40;;;2.67;;
19804;SDS011;10062;51.052;13.756;2022-07-29T11:50:34;14.98;;;4.18;;
19804;SDS011;10062;51.052;13.756;2022-07-29T11:53:10;4.57;;;2.80;;
19804;SDS011;10062;51.052;13.756;2022-07-29T11:55:43;7.15;;;2.85;;
19804;SDS011;10062;51.052;13.756;2022-07-29T11:58:15;4.43;;;2.47;;
19804;SDS011;10062;51.052;13.756;2022-07-29T12:00:53;9.02;;;4.85;;
19804;SDS011;10062;51.052;13.756;2022-07-29T12:03:26;6.32;;;2.70;;
19804;SDS011;10062;51.052;13.756;2022-07-29T12:05:59;5.97;;;2.75;;
19804;SDS011;10062;51.052;13.756;2022-07-29T12:08:30;5.13;;;2.70;;
19804;SDS011;10062;51.052;13.756;2022-07-29T12:11:15;5.00;;;2.83;;
19804;SDS011;10062;51.052;13.756;2022-07-29T12:13:48;5.65;;;3.00;;
19804;SDS011;10062;51.052;13.756;2022-07-29T12:16:20;6.03;;;2.80;;
19804;SDS011;10062;51.052;13.756;2022-07-29T12:18:57;6.10;;;3.28;;
19804;SDS011;10062;51.052;13.756;2022-07-29T12:21:42;6.03;;;2.90;;
19804;SDS011;10062;51.052;13.756;2022-07-29T12:24:15;5.28;;;2.92;;
19804;SDS011;10062;51.052;13.756;2022-07-29T12:26:51;5.45;;;3.20;;
19804;SDS011;10062;51.052;13.756;2022-07-29T12:29:23;4.88;;;2.67;;
19804;SDS011;10062;51.052;13.756;2022-07-29T12:31:56;4.13;;;2.60;;
19804;SDS011;10062;51.052;13.756;2022-07-29T12:34:30;5.80;;;3.03;;
19804;SDS011;10062;51.052;13.756;2022-07-29T12:37:02;4.50;;;3.00;;
19804;SDS011;10062;51.052;13.756;2022-07-29T12:39:34;4.03;;;2.63;;
19804;SDS011;10062;51.052;13.756;2022-07-29T12:42:10;6.22;;;3.45;;
19804;SDS011;10062;51.052;13.756;2022-07-29T12:44:43;3.80;;;2.50;;
19804;SDS011;10062;51.052;13.756;2022-07-29T12:47:16;5.85;;;2.92;;
19804;SDS011;10062;51.052;13.756;2022-07-29T12:49:50;6.03;;;3.13;;
19804;SDS011;10062;51.052;13.756;2022-07-29T12:52:38;6.13;;;2.90;;
19804;SDS011;10062;51.052;13.756;2022-07-29T12:55:09;9.35;;;5.10;;
19804;SDS011;10062;51.052;13.756;2022-07-29T12:57:45;11.02;;;5.70;;
19804;SDS011;10062;51.052;13.756;2022-07-29T13:00:21;5.82;;;3.35;;
19804;SDS011;10062;51.052;13.756;2022-07-29T13:02:54;5.93;;;3.58;;
19804;SDS011;10062;51.052;13.756;2022-07-29T13:05:39;6.30;;;2.92;;
19804;SDS011;10062;51.052;13.756;2022-07-29T13:08:13;10.02;;;4.43;;
19804;SDS011;10062;51.052;13.756;2022-07-29T13:10:45;6.28;;;3.30;;
19804;SDS011;10062;51.052;13.756;2022-07-29T13:13:18;6.90;;;3.22;;
19804;SDS011;10062;51.052;13.756;2022-07-29T13:16:04;9.70;;;3.45;;
19804;SDS011;10062;51.052;13.756;2022-07-29T13:18:37;7.75;;;3.15;;
19804;SDS011;10062;51.052;13.756;2022-07-29T13:21:13;6.00;;;2.90;;
19804;SDS011;10062;51.052;13.756;2022-07-29T13:23:46;6.05;;;3.17;;
19804;SDS011;10062;51.052;13.756;2022-07-29T13:26:18;6.63;;;3.25;;
19804;SDS011;10062;51.052;13.756;2022-07-29T13:28:49;4.45;;;2.95;;
19804;SDS011;10062;51.052;13.756;2022-07-29T13:31:21;7.10;;;2.65;;
19804;SDS011;10062;51.052;13.756;2022-07-29T13:33:53;5.63;;;2.80;;
19804;SDS011;10062;51.052;13.756;2022-07-29T13:36:27;6.30;;;2.60;;
19804;SDS011;10062;51.052;13.756;2022-07-29T13:38:59;3.67;;;2.58;;
19804;SDS011;10062;51.052;13.756;2022-07-29T13:41:32;3.63;;;2.97;;
19804;SDS011;10062;51.052;13.756;2022-07-29T13:44:04;5.55;;;2.75;;
19804;SDS011;10062;51.052;13.756;2022-07-29T13:46:35;6.55;;;3.00;;
19804;SDS011;10062;51.052;13.756;2022-07-29T13:49:07;5.10;;;3.03;;
19804;SDS011;10062;51.052;13.756;2022-07-29T13:51:40;7.05;;;3.03;;
19804;SDS011;10062;51.052;13.756;2022-07-29T13:54:12;5.13;;;2.85;;
19804;SDS011;10062;51.052;13.756;2022-07-29T13:56:44;6.78;;;2.78;;
19804;SDS011;10062;51.052;13.756;2022-07-29T13:59:16;6.28;;;3.10;;
19804;SDS011;10062;51.052;13.756;2022-07-29T14:01:47;7.70;;;2.90;;
19804;SDS011;10062;51.052;13.756;2022-07-29T14:04:19;7.47;;;3.90;;
19804;SDS011;10062;51.052;13.756;2022-07-29T14:06:52;5.90;;;2.90;;
19804;SDS011;10062;51.052;13.756;2022-07-29T14:09:24;4.80;;;2.20;;
19804;SDS011;10062;51.052;13.756;2022-07-29T14:11:56;7.45;;;2.63;;
19804;SDS011;10062;51.052;13.756;2022-07-29T14:14:27;6.60;;;2.78;;
19804;SDS011;10062;51.052;13.756;2022-07-29T14:17:01;6.57;;;2.90;;
19804;SDS011;10062;51.052;13.756;2022-07-29T14:19:35;5.57;;;2.60;;
19804;SDS011;10062;51.052;13.756;2022-07-29T14:22:09;5.28;;;2.67;;
19804;SDS011;10062;51.052;13.756;2022-07-29T14:24:41;6.53;;;2.88;;
19804;SDS011;10062;51.052;13.756;2022-07-29T14:27:12;5.82;;;2.88;;
19804;SDS011;10062;51.052;13.756;2022-07-29T14:29:44;9.88;;;3.58;;
19804;SDS011;10062;51.052;13.756;2022-07-29T14:32:16;9.38;;;2.72;;
19804;SDS011;10062;51.052;13.756;2022-07-29T14:34:48;4.38;;;2.65;;
19804;SDS011;10062;51.052;13.756;2022-07-29T14:37:21;6.18;;;2.65;;
19804;SDS011;10062;51.052;13.756;2022-07-29T14:39:52;6.45;;;2.90;;
19804;SDS011;10062;51.052;13.756;2022-07-29T14:42:29;5.05;;;3.15;;
19804;SDS011;10062;51.052;13.756;2022-07-29T14:45:01;6.45;;;2.65;;
19804;SDS011;10062;51.052;13.756;2022-07-29T14:47:34;5.22;;;3.08;;
19804;SDS011;10062;51.052;13.756;2022-07-29T14:50:06;5.55;;;3.03;;
19804;SDS011;10062;51.052;13.756;2022-07-29T14:52:40;4.85;;;2.83;;
19804;SDS011;10062;51.052;13.756;2022-07-29T14:55:11;5.38;;;2.70;;
19804;SDS011;10062;51.052;13.756;2022-07-29T14:57:43;6.88;;;3.30;;
19804;SDS011;10062;51.052;13.756;2022-07-29T15:00:15;8.57;;;3.28;;
19804;SDS011;10062;51.052;13.756;2022-07-29T15:02:47;7.57;;;3.35;;
19804;SDS011;10062;51.052;13.756;2022-07-29T15:05:19;8.15;;;3.38;;
19804;SDS011;10062;51.052;13.756;2022-07-29T15:07:52;8.15;;;3.45;;
19804;SDS011;10062;51.052;13.756;2022-07-29T15:10:24;7.03;;;3.25;;
19804;SDS011;10062;51.052;13.756;2022-07-29T15:12:57;5.93;;;2.70;;
19804;SDS011;10062;51.052;13.756;2022-07-29T15:15:28;7.43;;;2.97;;